sensor_id;sensor_type;location;lat;lon;timestamp;pressure;altitude;pressure_sealevel;temperature;humidity
36788;BME280;22738;45.560;9.434;2022-08-01T00:06:09;99703.06;;;24.91;100.00
36788;BME280;22738;45.560;9.434;2022-08-01T00:12:50;99700.16;;;24.86;100.00
36788;BME280;22738;45.560;9.434;2022-08-01T00:19:31;99699.69;;;24.76;100.00
36788;BME280;22738;45.560;9.434;2022-08-01T00:26:13;99703.19;;;24.62;100.00
36788;BME280;22738;45.560;9.434;2022-08-01T00:32:54;99704.81;;;24.63;100.00
36788;BME280;22738;45.560;9.434;2022-08-01T00:39:35;99707.22;;;24.58;100.00
36788;BME280;22738;45.560;9.434;2022-08-01T00:46:16;99701.84;;;24.51;100.00
36788;BME280;22738;45.560;9.434;2022-08-01T00:52:58;99704.72;;;24.50;100.00
36788;BME280;22738;45.560;9.434;2022-08-01T00:59:40;99705.91;;;24.47;100.00
36788;BME280;22738;45.560;9.434;2022-08-01T01:06:30;99711.16;;;24.41;100.00
36788;BME280;22738;45.560;9.434;2022-08-01T01:13:22;99704.06;;;24.27;100.00
36788;BME280;22738;45.560;9.434;2022-08-01T01:20:05;99700.69;;;24.33;100.00
36788;BME280;22738;45.560;9.434;2022-08-01T01:26:59;99699.97;;;24.24;100.00
36788;BME280;22738;45.560;9.434;2022-08-01T01:33:42;99703.56;;;24.17;100.00
36788;BME280;22738;45.560;9.434;2022-08-01T01:40:25;99702.13;;;24.14;100.00
36788;BME280;22738;45.560;9.434;2022-08-01T01:47:08;99698.47;;;24.00;100.00
36788;BME280;22738;45.560;9.434;2022-08-01T01:53:51;99696.69;;;23.86;100.00
36788;BME280;22738;45.560;9.434;2022-08-01T02:00:34;99702.03;;;23.93;100.00
36788;BME280;22738;45.560;9.434;2022-08-01T02:07:21;99706.63;;;23.84;100.00
36788;BME280;22738;45.560;9.434;2022-08-01T02:14:03;99705.63;;;23.85;100.00
36788;BME280;22738;45.560;9.434;2022-08-01T02:20:48;99707.63;;;23.83;100.00
36788;BME280;22738;45.560;9.434;2022-08-01T02:28:09;99706.72;;;23.76;100.00
36788;BME280;22738;45.560;9.434;2022-08-01T02:34:53;99710.13;;;23.70;100.00
36788;BME280;22738;45.560;9.434;2022-08-01T02:42:00;99720.81;;;23.62;100.00
36788;BME280;22738;45.560;9.434;2022-08-01T02:48:46;99722.72;;;23.68;100.00
36788;BME280;22738;45.560;9.434;2022-08-01T02:55:29;99717.97;;;23.64;100.00
36788;BME280;22738;45.560;9.434;2022-08-01T03:02:11;99719.63;;;23.50;100.00
36788;BME280;22738;45.560;9.434;2022-08-01T03:08:54;99727.00;;;23.40;100.00
36788;BME280;22738;45.560;9.434;2022-08-01T03:15:38;99721.16;;;23.30;100.00
36788;BME280;22738;45.560;9.434;2022-08-01T03:22:21;99724.91;;;23.21;100.00
36788;BME280;22738;45.560;9.434;2022-08-01T03:29:10;99720.06;;;23.10;100.00
36788;BME280;22738;45.560;9.434;2022-08-01T03:35:54;99718.69;;;23.14;100.00
36788;BME280;22738;45.560;9.434;2022-08-01T03:42:45;99723.25;;;23.20;100.00
36788;BME280;22738;45.560;9.434;2022-08-01T03:49:33;99721.63;;;23.19;100.00
36788;BME280;22738;45.560;9.434;2022-08-01T03:56:18;99727.06;;;23.17;100.00
36788;BME280;22738;45.560;9.434;2022-08-01T04:03:00;99737.09;;;23.22;100.00
36788;BME280;22738;45.560;9.434;2022-08-01T04:09:41;99741.22;;;23.24;100.00
36788;BME280;22738;45.560;9.434;2022-08-01T04:16:23;99742.88;;;23.25;100.00
36788;BME280;22738;45.560;9.434;2022-08-01T04:23:04;99748.59;;;23.29;100.00
36788;BME280;22738;45.560;9.434;2022-08-01T04:29:53;99757.72;;;23.26;100.00
36788;BME280;22738;45.560;9.434;2022-08-01T04:36:38;99763.09;;;23.33;100.00
36788;BME280;22738;45.560;9.434;2022-08-01T04:43:22;99766.00;;;23.46;100.00
36788;BME280;22738;45.560;9.434;2022-08-01T04:50:05;99762.63;;;23.52;100.00
36788;BME280;22738;45.560;9.434;2022-08-01T04:56:47;99771.38;;;23.67;100.00
36788;BME280;22738;45.560;9.434;2022-08-01T05:03:28;99767.19;;;23.87;100.00
36788;BME280;22738;45.560;9.434;2022-08-01T05:10:09;99768.97;;;24.01;100.00
36788;BME280;22738;45.560;9.434;2022-08-01T05:16:51;99761.84;;;24.17;100.00
36788;BME280;22738;45.560;9.434;2022-08-01T05:23:32;99766.16;;;24.39;100.00
36788;BME280;22738;45.560;9.434;2022-08-01T05:30:13;99760.31;;;24.64;100.00
36788;BME280;22738;45.560;9.434;2022-08-01T05:36:54;99760.94;;;24.88;100.00
36788;BME280;22738;45.560;9.434;2022-08-01T05:43:36;99768.63;;;25.31;100.00
36788;BME280;22738;45.560;9.434;2022-08-01T05:50:17;99768.44;;;26.68;100.00
36788;BME280;22738;45.560;9.434;2022-08-01T05:56:58;99774.94;;;29.46;93.79
36788;BME280;22738;45.560;9.434;2022-08-01T06:03:42;99798.97;;;35.50;46.74
36788;BME280;22738;45.560;9.434;2022-08-01T06:10:23;99794.16;;;37.80;41.94
36788;BME280;22738;45.560;9.434;2022-08-01T06:17:04;99803.72;;;39.09;37.18
36788;BME280;22738;45.560;9.434;2022-08-01T06:23:45;99811.56;;;40.16;36.06
36788;BME280;22738;45.560;9.434;2022-08-01T06:30:27;99806.63;;;41.24;32.46
36788;BME280;22738;45.560;9.434;2022-08-01T06:37:08;99818.84;;;42.72;30.72
36788;BME280;22738;45.560;9.434;2022-08-01T06:43:49;99820.75;;;43.38;29.51
36788;BME280;22738;45.560;9.434;2022-08-01T06:50:30;99825.41;;;44.24;28.13
36788;BME280;22738;45.560;9.434;2022-08-01T06:57:11;99818.78;;;44.08;29.07
36788;BME280;22738;45.560;9.434;2022-08-01T07:03:52;99823.09;;;45.12;27.39
36788;BME280;22738;45.560;9.434;2022-08-01T07:10:34;99829.47;;;44.52;27.70
36788;BME280;22738;45.560;9.434;2022-08-01T07:17:15;99828.13;;;45.10;28.39
36788;BME280;22738;45.560;9.434;2022-08-01T07:23:56;99811.88;;;44.11;27.73
36788;BME280;22738;45.560;9.434;2022-08-01T07:30:37;99819.78;;;44.29;26.72
36788;BME280;22738;45.560;9.434;2022-08-01T07:37:18;99813.06;;;44.52;26.49
36788;BME280;22738;45.560;9.434;2022-08-01T07:43:59;99808.47;;;43.57;26.98
36788;BME280;22738;45.560;9.434;2022-08-01T07:50:40;99800.72;;;41.04;29.59
36788;BME280;22738;45.560;9.434;2022-08-01T07:57:21;99797.59;;;39.80;30.89
36788;BME280;22738;45.560;9.434;2022-08-01T08:04:02;99799.13;;;38.76;34.40
36788;BME280;22738;45.560;9.434;2022-08-01T08:10:44;99789.75;;;36.95;36.84
36788;BME280;22738;45.560;9.434;2022-08-01T08:17:25;99793.50;;;37.25;40.51
36788;BME280;22738;45.560;9.434;2022-08-01T08:24:16;99791.63;;;36.95;43.81
36788;BME280;22738;45.560;9.434;2022-08-01T08:31:00;99796.47;;;37.03;42.09
36788;BME280;22738;45.560;9.434;2022-08-01T08:37:41;99789.16;;;36.68;41.27
36788;BME280;22738;45.560;9.434;2022-08-01T08:44:23;99795.19;;;36.03;42.15
36788;BME280;22738;45.560;9.434;2022-08-01T08:51:04;99802.03;;;36.36;49.26
36788;BME280;22738;45.560;9.434;2022-08-01T08:57:46;99798.09;;;36.84;43.13
36788;BME280;22738;45.560;9.434;2022-08-01T09:04:28;99794.81;;;36.72;44.17
36788;BME280;22738;45.560;9.434;2022-08-01T09:11:09;99798.34;;;36.67;45.59
36788;BME280;22738;45.560;9.434;2022-08-01T09:17:50;99805.03;;;36.34;47.64
36788;BME280;22738;45.560;9.434;2022-08-01T09:24:32;99793.88;;;35.59;44.23
36788;BME280;22738;45.560;9.434;2022-08-01T09:31:16;99781.06;;;35.86;47.46
36788;BME280;22738;45.560;9.434;2022-08-01T09:38:19;99782.78;;;36.12;44.20
36788;BME280;22738;45.560;9.434;2022-08-01T09:45:01;99787.84;;;35.94;47.80
36788;BME280;22738;45.560;9.434;2022-08-01T09:51:42;99777.59;;;35.44;48.64
36788;BME280;22738;45.560;9.434;2022-08-01T09:58:23;99768.94;;;35.89;50.17
36788;BME280;22738;45.560;9.434;2022-08-01T10:05:07;99766.22;;;35.42;51.32
36788;BME280;22738;45.560;9.434;2022-08-01T10:11:48;99757.84;;;35.80;46.50
36788;BME280;22738;45.560;9.434;2022-08-01T10:18:32;99753.56;;;35.89;45.97
36788;BME280;22738;45.560;9.434;2022-08-01T10:25:16;99749.47;;;35.30;49.33
36788;BME280;22738;45.560;9.434;2022-08-01T10:31:58;99748.38;;;35.26;45.36
36788;BME280;22738;45.560;9.434;2022-08-01T10:38:40;99740.03;;;34.95;46.69
36788;BME280;22738;45.560;9.434;2022-08-01T10:45:22;99730.94;;;35.43;49.23
36788;BME280;22738;45.560;9.434;2022-08-01T10:52:03;99722.53;;;35.35;44.79
36788;BME280;22738;45.560;9.434;2022-08-01T10:58:46;99713.56;;;35.24;43.40
36788;BME280;22738;45.560;9.434;2022-08-01T11:05:31;99702.59;;;35.41;47.42
36788;BME280;22738;45.560;9.434;2022-08-01T11:12:16;99700.53;;;35.53;41.89
36788;BME280;22738;45.560;9.434;2022-08-01T11:18:58;99691.25;;;35.34;43.10
36788;BME280;22738;45.560;9.434;2022-08-01T11:32:23;99666.38;;;35.22;48.61
36788;BME280;22738;45.560;9.434;2022-08-01T11:45:51;99647.81;;;34.88;44.32
36788;BME280;22738;45.560;9.434;2022-08-01T11:52:33;99641.34;;;34.84;44.27
36788;BME280;22738;45.560;9.434;2022-08-01T11:59:16;99632.28;;;35.00;43.13
36788;BME280;22738;45.560;9.434;2022-08-01T12:05:58;99622.38;;;34.69;41.67
36788;BME280;22738;45.560;9.434;2022-08-01T12:12:45;99618.53;;;34.55;41.71
36788;BME280;22738;45.560;9.434;2022-08-01T12:19:27;99605.31;;;34.54;40.50
36788;BME280;22738;45.560;9.434;2022-08-01T12:26:08;99606.59;;;34.51;42.50
36788;BME280;22738;45.560;9.434;2022-08-01T12:32:49;99591.41;;;34.35;41.62
36788;BME280;22738;45.560;9.434;2022-08-01T12:39:32;99584.56;;;34.54;43.17
36788;BME280;22738;45.560;9.434;2022-08-01T12:46:13;99576.97;;;34.46;41.27
36788;BME280;22738;45.560;9.434;2022-08-01T12:52:58;99571.47;;;34.31;41.72
36788;BME280;22738;45.560;9.434;2022-08-01T12:59:39;99558.13;;;34.46;42.34
36788;BME280;22738;45.560;9.434;2022-08-01T13:06:21;99551.75;;;34.57;41.16
36788;BME280;22738;45.560;9.434;2022-08-01T13:13:02;99554.44;;;34.57;38.35
36788;BME280;22738;45.560;9.434;2022-08-01T13:19:44;99538.72;;;34.49;37.83
36788;BME280;22738;45.560;9.434;2022-08-01T13:33:23;99535.44;;;34.37;35.15
36788;BME280;22738;45.560;9.434;2022-08-01T13:40:06;99535.41;;;34.32;34.94
36788;BME280;22738;45.560;9.434;2022-08-01T13:46:48;99538.91;;;34.32;35.26
36788;BME280;22738;45.560;9.434;2022-08-01T13:53:29;99528.94;;;34.33;36.06
36788;BME280;22738;45.560;9.434;2022-08-01T14:00:11;99515.03;;;34.51;35.37
36788;BME280;22738;45.560;9.434;2022-08-01T14:06:55;99507.63;;;34.68;35.82
36788;BME280;22738;45.560;9.434;2022-08-01T14:13:36;99499.28;;;34.70;35.19
36788;BME280;22738;45.560;9.434;2022-08-01T14:20:19;99495.56;;;34.86;36.58
36788;BME280;22738;45.560;9.434;2022-08-01T14:27:00;99489.44;;;35.00;36.92
36788;BME280;22738;45.560;9.434;2022-08-01T14:33:42;99486.78;;;35.10;35.45
36788;BME280;22738;45.560;9.434;2022-08-01T14:40:23;99483.03;;;35.22;35.42
36788;BME280;22738;45.560;9.434;2022-08-01T14:47:05;99482.00;;;35.28;35.57
36788;BME280;22738;45.560;9.434;2022-08-01T14:53:46;99481.19;;;35.32;35.33
36788;BME280;22738;45.560;9.434;2022-08-01T15:00:28;99473.91;;;35.28;34.44
36788;BME280;22738;45.560;9.434;2022-08-01T15:07:10;99473.88;;;35.33;35.71
36788;BME280;22738;45.560;9.434;2022-08-01T15:13:51;99475.00;;;35.37;35.39
36788;BME280;22738;45.560;9.434;2022-08-01T15:20:53;99471.75;;;35.45;34.49
36788;BME280;22738;45.560;9.434;2022-08-01T15:27:36;99462.06;;;35.54;36.43
36788;BME280;22738;45.560;9.434;2022-08-01T15:34:17;99452.88;;;35.40;33.95
36788;BME280;22738;45.560;9.434;2022-08-01T15:40:58;99460.44;;;35.48;33.38
36788;BME280;22738;45.560;9.434;2022-08-01T15:47:41;99444.25;;;35.28;33.53
36788;BME280;22738;45.560;9.434;2022-08-01T15:54:22;99438.59;;;35.34;34.12
36788;BME280;22738;45.560;9.434;2022-08-01T16:01:04;99430.22;;;35.31;32.20
36788;BME280;22738;45.560;9.434;2022-08-01T16:07:45;99420.53;;;35.30;33.43
36788;BME280;22738;45.560;9.434;2022-08-01T16:14:26;99422.38;;;35.24;33.02
36788;BME280;22738;45.560;9.434;2022-08-01T16:21:07;99417.78;;;35.14;32.79
36788;BME280;22738;45.560;9.434;2022-08-01T16:27:51;99411.84;;;35.12;32.74
36788;BME280;22738;45.560;9.434;2022-08-01T16:34:33;99402.63;;;34.98;32.18
36788;BME280;22738;45.560;9.434;2022-08-01T16:41:14;99396.16;;;34.89;32.35
36788;BME280;22738;45.560;9.434;2022-08-01T16:47:56;99401.03;;;34.97;32.02
36788;BME280;22738;45.560;9.434;2022-08-01T16:54:38;99390.78;;;34.94;31.63
36788;BME280;22738;45.560;9.434;2022-08-01T17:01:19;99386.75;;;34.87;31.24
36788;BME280;22738;45.560;9.434;2022-08-01T17:08:00;99385.34;;;34.74;32.30
36788;BME280;22738;45.560;9.434;2022-08-01T17:14:41;99387.75;;;34.66;32.76
36788;BME280;22738;45.560;9.434;2022-08-01T17:21:22;99390.06;;;34.37;33.86
36788;BME280;22738;45.560;9.434;2022-08-01T17:28:03;99388.91;;;34.23;34.28
36788;BME280;22738;45.560;9.434;2022-08-01T17:34:45;99387.16;;;34.02;34.12
36788;BME280;22738;45.560;9.434;2022-08-01T17:41:26;99398.88;;;33.86;33.64
36788;BME280;22738;45.560;9.434;2022-08-01T17:48:07;99407.47;;;33.78;33.25
36788;BME280;22738;45.560;9.434;2022-08-01T17:54:56;99407.38;;;33.67;33.61
36788;BME280;22738;45.560;9.434;2022-08-01T18:01:37;99412.75;;;33.36;34.26
36788;BME280;22738;45.560;9.434;2022-08-01T18:08:18;99418.09;;;33.04;36.11
36788;BME280;22738;45.560;9.434;2022-08-01T18:14:59;99414.47;;;32.72;37.72
36788;BME280;22738;45.560;9.434;2022-08-01T18:21:49;99432.78;;;32.53;36.75
36788;BME280;22738;45.560;9.434;2022-08-01T18:28:31;99429.00;;;32.32;37.85
36788;BME280;22738;45.560;9.434;2022-08-01T18:35:12;99435.28;;;32.21;38.81
36788;BME280;22738;45.560;9.434;2022-08-01T18:41:53;99438.25;;;32.03;41.66
36788;BME280;22738;45.560;9.434;2022-08-01T18:48:37;99453.22;;;31.66;49.43
36788;BME280;22738;45.560;9.434;2022-08-01T18:55:20;99461.56;;;31.25;56.82
36788;BME280;22738;45.560;9.434;2022-08-01T19:02:01;99477.06;;;30.94;65.99
36788;BME280;22738;45.560;9.434;2022-08-01T19:08:42;99474.06;;;30.68;74.79
36788;BME280;22738;45.560;9.434;2022-08-01T19:15:24;99474.19;;;30.73;69.43
36788;BME280;22738;45.560;9.434;2022-08-01T19:22:05;99469.16;;;30.76;65.75
36788;BME280;22738;45.560;9.434;2022-08-01T19:28:50;99486.25;;;30.87;68.91
36788;BME280;22738;45.560;9.434;2022-08-01T19:35:32;99486.97;;;30.82;68.08
36788;BME280;22738;45.560;9.434;2022-08-01T19:42:13;99492.44;;;30.87;66.69
36788;BME280;22738;45.560;9.434;2022-08-01T19:48:54;99494.06;;;30.88;66.99
36788;BME280;22738;45.560;9.434;2022-08-01T19:55:37;99496.28;;;30.80;66.87
36788;BME280;22738;45.560;9.434;2022-08-01T20:02:18;99509.75;;;30.85;65.40
36788;BME280;22738;45.560;9.434;2022-08-01T20:09:00;99524.66;;;30.81;69.71
36788;BME280;22738;45.560;9.434;2022-08-01T20:15:42;99526.78;;;30.67;77.30
36788;BME280;22738;45.560;9.434;2022-08-01T20:22:28;99539.72;;;30.70;70.10
36788;BME280;22738;45.560;9.434;2022-08-01T20:29:13;99539.25;;;30.73;68.26
36788;BME280;22738;45.560;9.434;2022-08-01T20:35:56;99536.56;;;30.73;65.36
36788;BME280;22738;45.560;9.434;2022-08-01T20:42:39;99530.19;;;30.51;72.48
36788;BME280;22738;45.560;9.434;2022-08-01T20:49:21;99534.63;;;30.34;72.12
36788;BME280;22738;45.560;9.434;2022-08-01T20:56:06;99543.75;;;30.26;70.75
36788;BME280;22738;45.560;9.434;2022-08-01T21:02:58;99539.91;;;30.11;77.14
36788;BME280;22738;45.560;9.434;2022-08-01T21:09:46;99547.69;;;29.89;80.03
36788;BME280;22738;45.560;9.434;2022-08-01T21:16:32;99540.50;;;29.72;87.37
36788;BME280;22738;45.560;9.434;2022-08-01T21:30:08;99542.97;;;29.43;86.55
36788;BME280;22738;45.560;9.434;2022-08-01T21:36:49;99533.66;;;29.34;100.00
36788;BME280;22738;45.560;9.434;2022-08-01T21:43:34;99536.75;;;29.13;100.00
36788;BME280;22738;45.560;9.434;2022-08-01T21:50:16;99533.28;;;28.94;100.00
36788;BME280;22738;45.560;9.434;2022-08-01T22:03:58;99525.69;;;28.62;100.00
36788;BME280;22738;45.560;9.434;2022-08-01T22:10:42;99530.44;;;28.53;100.00
36788;BME280;22738;45.560;9.434;2022-08-01T22:17:23;99545.09;;;28.69;100.00
36788;BME280;22738;45.560;9.434;2022-08-01T22:24:05;99539.97;;;28.67;99.70
36788;BME280;22738;45.560;9.434;2022-08-01T22:30:48;99534.69;;;28.61;97.29
36788;BME280;22738;45.560;9.434;2022-08-01T22:37:30;99532.56;;;28.45;100.00
36788;BME280;22738;45.560;9.434;2022-08-01T22:44:13;99534.06;;;28.41;99.90
36788;BME280;22738;45.560;9.434;2022-08-01T22:51:04;99545.06;;;28.26;100.00
36788;BME280;22738;45.560;9.434;2022-08-01T23:04:38;99544.81;;;28.09;100.00
36788;BME280;22738;45.560;9.434;2022-08-01T23:11:19;99545.72;;;27.90;98.43
36788;BME280;22738;45.560;9.434;2022-08-01T23:18:04;99544.94;;;27.83;96.63
36788;BME280;22738;45.560;9.434;2022-08-01T23:24:46;99556.56;;;27.64;100.00
36788;BME280;22738;45.560;9.434;2022-08-01T23:31:28;99553.00;;;27.45;100.00
36788;BME280;22738;45.560;9.434;2022-08-01T23:38:09;99556.28;;;27.41;100.00
36788;BME280;22738;45.560;9.434;2022-08-01T23:44:50;99555.28;;;27.29;100.00
36788;BME280;22738;45.560;9.434;2022-08-01T23:51:32;99557.19;;;27.15;100.00
36788;BME280;22738;45.560;9.434;2022-08-01T23:58:13;99569.25;;;27.18;100.00
